createdAt,value
2017-05-15T00:00:15.898Z,29.8
2017-05-15T00:01:15.701Z,29.8
2017-05-15T00:02:15.710Z,29.8
2017-05-15T00:03:16.823Z,29.8
2017-05-15T00:04:16.787Z,29.8
2017-05-15T00:05:16.913Z,29.8
2017-05-15T00:06:16.123Z,29.8
2017-05-15T00:07:16.893Z,29.8
2017-05-15T00:08:15.933Z,29.8
2017-05-15T00:09:15.962Z,29.8
2017-05-15T00:10:17.062Z,29.8
2017-05-15T00:11:17.158Z,29.8
2017-05-15T00:12:17.514Z,29.8
2017-05-15T00:13:16.221Z,29.8
2017-05-15T00:14:16.304Z,29.8
2017-05-15T00:15:17.285Z,29.8
2017-05-15T00:16:16.246Z,29.8
2017-05-15T00:17:17.405Z,29.8
2017-05-15T00:18:16.708Z,29.8
2017-05-15T00:19:16.488Z,29.8
2017-05-15T00:20:17.473Z,29.8
2017-05-15T00:21:17.529Z,29.8
2017-05-15T00:22:17.563Z,29.8
2017-05-15T00:23:17.693Z,29.8
2017-05-15T00:24:16.879Z,29.8
2017-05-15T00:25:17.696Z,29.8
2017-05-15T00:26:17.643Z,29.8
2017-05-15T00:27:17.722Z,29.8
2017-05-15T00:28:17.715Z,29.8
2017-05-15T00:29:16.647Z,29.8
2017-05-15T00:30:17.013Z,29.8
2017-05-15T00:31:17.906Z,29.8
2017-05-15T00:32:16.811Z,29.8
2017-05-15T00:33:16.836Z,29.8
2017-05-15T00:34:16.954Z,29.8
2017-05-15T00:35:17.931Z,29.8
2017-05-15T00:36:18.220Z,29.8
2017-05-15T00:37:16.967Z,29.8
2017-05-15T00:38:18.086Z,29.8
2017-05-15T00:39:17.037Z,29.8
2017-05-15T00:40:18.129Z,29.8
2017-05-15T00:41:18.165Z,29.8
2017-05-15T00:42:18.517Z,29.8
2017-05-15T00:43:17.175Z,29.8
2017-05-15T00:44:17.292Z,29.8
2017-05-15T00:45:18.265Z,29.8
2017-05-15T00:46:17.239Z,29.8
2017-05-15T00:47:18.403Z,29.8
2017-05-15T00:48:18.708Z,29.8
2017-05-15T00:49:17.328Z,29.8
2017-05-15T00:50:17.348Z,29.8
2017-05-15T00:51:17.467Z,29.8
2017-05-15T00:52:17.465Z,29.8
2017-05-15T00:53:17.410Z,29.8
2017-05-15T00:54:17.777Z,29.8
2017-05-15T00:55:18.600Z,29.8
2017-05-15T00:56:17.625Z,29.8
2017-05-15T00:57:18.718Z,29.8
2017-05-15T00:58:18.848Z,29.8
2017-05-15T00:59:18.856Z,29.8
2017-05-15T01:00:18.047Z,29.8
2017-05-15T01:01:18.940Z,29.9
2017-05-15T01:02:19.016Z,29.8
2017-05-15T01:03:18.047Z,29.8
2017-05-15T01:04:19.153Z,29.8
2017-05-15T01:05:18.170Z,29.8
2017-05-15T01:06:19.526Z,29.8
2017-05-15T01:07:18.252Z,29.8
2017-05-15T01:08:19.315Z,29.8
2017-05-15T01:09:18.306Z,29.9
2017-05-15T01:10:19.402Z,29.9
2017-05-15T01:11:19.539Z,29.9
2017-05-15T01:12:18.808Z,29.9
2017-05-15T01:13:19.536Z,29.9
2017-05-15T01:14:18.655Z,29.9
2017-05-15T01:15:19.728Z,29.9
2017-05-15T01:16:18.585Z,29.9
2017-05-15T01:17:19.786Z,29.9
2017-05-15T01:18:19.009Z,29.9
2017-05-15T01:19:18.787Z,29.9
2017-05-15T01:20:18.904Z,29.9
2017-05-15T01:21:18.972Z,29.9
2017-05-15T01:22:18.927Z,29.9
2017-05-15T01:23:18.949Z,29.9
2017-05-15T01:24:20.445Z,29.9
2017-05-15T01:25:20.186Z,29.9
2017-05-15T01:26:20.230Z,29.9
2017-05-15T01:27:20.321Z,29.9
2017-05-15T01:28:20.419Z,29.9
2017-05-15T01:29:20.817Z,29.9
2017-05-15T01:30:20.616Z,29.9
2017-05-15T01:31:20.560Z,29.9
2017-05-15T01:32:20.619Z,29.9
2017-05-15T01:33:20.706Z,29.9
2017-05-15T01:34:20.896Z,29.9
2017-05-15T01:35:20.039Z,29.9
2017-05-15T01:36:20.981Z,29.9
2017-05-15T01:37:20.571Z,29.9
2017-05-15T01:38:21.082Z,29.9
2017-05-15T01:39:20.163Z,29.9
2017-05-15T01:40:21.237Z,29.9
2017-05-15T01:41:20.518Z,29.9
2017-05-15T01:42:21.416Z,29.9
2017-05-15T01:43:20.406Z,29.9
2017-05-15T01:44:20.471Z,29.9
2017-05-15T01:45:21.509Z,29.9
2017-05-15T01:46:20.586Z,29.9
2017-05-15T01:47:21.922Z,29.9
2017-05-15T01:48:21.660Z,29.9
2017-05-15T01:49:21.776Z,29.9
2017-05-15T01:50:20.698Z,29.9
2017-05-15T01:51:21.782Z,29.9
2017-05-15T01:52:20.904Z,29.9
2017-05-15T01:53:22.298Z,29.9
2017-05-15T01:54:20.966Z,29.9
2017-05-15T01:55:20.952Z,29.9
2017-05-15T01:56:21.034Z,29.9
2017-05-15T01:57:21.181Z,29.9
2017-05-15T01:58:22.282Z,29.9
2017-05-15T01:59:22.636Z,29.9
2017-05-15T02:00:22.444Z,29.9
2017-05-15T02:01:21.398Z,29.9
2017-05-15T02:02:21.418Z,29.9
2017-05-15T02:03:22.517Z,29.9
2017-05-15T02:04:21.529Z,29.9
2017-05-15T02:05:23.594Z,29.9
2017-05-15T02:06:21.636Z,29.9
2017-05-15T02:07:21.670Z,29.9
2017-05-15T02:08:22.845Z,29.9
2017-05-15T02:09:22.875Z,29.9
2017-05-15T02:10:22.903Z,29.9
2017-05-15T02:11:22.178Z,29.9
2017-05-15T02:12:22.982Z,29.9
2017-05-15T02:13:23.120Z,29.9
2017-05-15T02:14:23.137Z,30
2017-05-15T02:15:23.233Z,30
2017-05-15T02:16:23.272Z,30
2017-05-15T02:17:23.652Z,30
2017-05-15T02:18:22.479Z,30
2017-05-15T02:19:23.455Z,29.9
2017-05-15T02:20:23.503Z,29.9
2017-05-15T02:21:22.518Z,29.9
2017-05-15T02:22:22.624Z,30
2017-05-15T02:23:22.960Z,30
2017-05-15T02:24:23.719Z,30
2017-05-15T02:25:23.896Z,30
2017-05-15T02:26:23.994Z,30
2017-05-15T02:27:22.873Z,30
2017-05-15T02:28:24.015Z,30
2017-05-15T02:29:24.516Z,30
2017-05-15T02:30:24.278Z,30
2017-05-15T02:31:23.252Z,30
2017-05-15T02:32:23.178Z,30
2017-05-15T02:33:24.383Z,30
2017-05-15T02:34:24.337Z,30
2017-05-15T02:35:23.723Z,30
2017-05-15T02:36:23.534Z,30
2017-05-15T02:37:24.512Z,30
2017-05-15T02:38:23.628Z,30
2017-05-15T02:39:23.605Z,30
2017-05-15T02:40:24.720Z,30
2017-05-15T02:41:23.910Z,30
2017-05-15T02:42:23.646Z,30
2017-05-15T02:43:23.696Z,30
2017-05-15T02:44:23.743Z,30
2017-05-15T02:45:24.373Z,30
2017-05-15T02:46:24.929Z,30
2017-05-15T02:47:24.186Z,30
2017-05-15T02:48:23.853Z,30
2017-05-15T02:49:25.027Z,30
2017-05-15T02:50:25.038Z,30
2017-05-15T02:51:24.085Z,30
2017-05-15T02:52:25.109Z,30
2017-05-15T02:53:24.461Z,30
2017-05-15T02:54:24.191Z,30
2017-05-15T02:55:24.287Z,30
2017-05-15T02:56:25.380Z,30
2017-05-15T02:57:24.316Z,30
2017-05-15T02:58:24.258Z,30
2017-05-15T02:59:25.758Z,30
2017-05-15T03:00:24.370Z,30
2017-05-15T03:01:25.483Z,30
2017-05-15T03:02:25.498Z,30
2017-05-15T03:03:25.614Z,30
2017-05-15T03:04:24.558Z,30
2017-05-15T03:05:24.937Z,30
2017-05-15T03:06:24.646Z,30
2017-05-15T03:07:24.744Z,30
2017-05-15T03:08:24.777Z,30
2017-05-15T03:09:25.925Z,30
2017-05-15T03:10:25.951Z,30
2017-05-15T03:11:25.165Z,30
2017-05-15T03:12:26.095Z,30
2017-05-15T03:13:26.238Z,30
2017-05-15T03:14:25.079Z,30
2017-05-15T03:15:25.105Z,30
2017-05-15T03:16:25.178Z,30
2017-05-15T03:17:26.554Z,30
2017-05-15T03:18:25.376Z,30
2017-05-15T03:19:25.392Z,30
2017-05-15T03:20:25.428Z,30
2017-05-15T03:21:25.344Z,30
2017-05-15T03:22:26.453Z,30
2017-05-15T03:23:26.789Z,30
2017-05-15T03:24:25.587Z,30
2017-05-15T03:25:25.512Z,30
2017-05-15T03:26:25.628Z,30
2017-05-15T03:27:25.643Z,30
2017-05-15T03:28:25.751Z,30
2017-05-15T03:29:27.028Z,30
2017-05-15T03:30:26.793Z,30
2017-05-15T03:31:26.848Z,30
2017-05-15T03:32:26.977Z,30
2017-05-15T03:33:26.996Z,30
2017-05-15T03:34:27.020Z,30
2017-05-15T03:35:26.201Z,30
2017-05-15T03:36:27.077Z,30
2017-05-15T03:37:26.076Z,30
2017-05-15T03:38:26.138Z,30
2017-05-15T03:39:26.185Z,30
2017-05-15T03:40:26.201Z,30
2017-05-15T03:41:27.488Z,30.1
2017-05-15T03:42:27.265Z,30.1
2017-05-15T03:43:26.327Z,30.1
2017-05-15T03:44:26.342Z,30.2
2017-05-15T03:45:26.329Z,30.2
2017-05-15T03:46:27.335Z,30.2
2017-05-15T03:47:27.646Z,30.2
2017-05-15T03:48:27.444Z,30.3
2017-05-15T03:49:26.391Z,30.3
2017-05-15T03:50:26.454Z,30.3
2017-05-15T03:51:26.602Z,30.3
2017-05-15T03:52:27.678Z,30.3
2017-05-15T03:53:27.064Z,30.3
2017-05-15T03:54:27.880Z,30.3
2017-05-15T03:55:26.884Z,30.3
2017-05-15T03:56:27.977Z,30.3
2017-05-15T03:57:26.825Z,30.3
2017-05-15T03:58:28.044Z,30.3
2017-05-15T03:59:28.239Z,30.3
2017-05-15T04:00:28.095Z,30.3
2017-05-15T04:01:28.119Z,30.3
2017-05-15T04:02:27.070Z,30.3
2017-05-15T04:03:27.161Z,30.3
2017-05-15T04:04:28.301Z,30.3
2017-05-15T04:05:28.627Z,30.3
2017-05-15T04:06:27.456Z,30.3
2017-05-15T04:07:27.619Z,30.3
2017-05-15T04:08:28.603Z,30.3
2017-05-15T04:09:27.621Z,30.3
2017-05-15T04:10:28.827Z,30.3
2017-05-15T04:11:28.031Z,30.3
2017-05-15T04:12:28.848Z,30.3
2017-05-15T04:13:27.854Z,30.3
2017-05-15T04:14:28.948Z,30.3
2017-05-15T04:15:29.068Z,30.3
2017-05-15T04:16:28.032Z,30.3
2017-05-15T04:17:29.300Z,30.3
2017-05-15T04:18:27.987Z,30.2
2017-05-15T04:19:29.229Z,30.2
2017-05-15T04:20:28.231Z,30.2
2017-05-15T04:21:28.236Z,30.2
2017-05-15T04:22:29.242Z,30.2
2017-05-15T04:23:28.615Z,30.2
2017-05-15T04:24:29.471Z,30.2
2017-05-15T04:25:28.507Z,30.2
2017-05-15T04:26:29.485Z,30.2
2017-05-15T04:27:29.602Z,30.2
2017-05-15T04:28:29.605Z,30.2
2017-05-15T04:29:30.037Z,30.2
2017-05-15T04:30:28.623Z,30.2
2017-05-15T04:31:29.804Z,30.3
2017-05-15T04:32:29.812Z,30.4
2017-05-15T04:33:29.888Z,30.6
2017-05-15T04:34:28.917Z,30.7
2017-05-15T04:35:30.287Z,30.9
2017-05-15T04:36:28.939Z,31.1
2017-05-15T04:37:30.091Z,31.2
2017-05-15T04:38:30.172Z,31.4
2017-05-15T04:39:30.115Z,31.5
2017-05-15T04:40:30.253Z,31.7
2017-05-15T04:41:29.420Z,31.8
2017-05-15T04:42:30.414Z,31.9
2017-05-15T04:43:29.325Z,32
2017-05-15T04:44:29.273Z,32.1
2017-05-15T04:45:29.295Z,32.2
2017-05-15T04:46:30.458Z,32.3
2017-05-15T04:47:30.750Z,32.3
2017-05-15T04:48:29.356Z,32.4
2017-05-15T04:49:29.613Z,32.5
2017-05-15T04:50:30.620Z,32.5
2017-05-15T04:51:30.686Z,32.6
2017-05-15T04:52:30.722Z,32.6
2017-05-15T04:53:29.986Z,32.7
2017-05-15T04:54:30.805Z,32.7
2017-05-15T04:55:30.854Z,32.8
2017-05-15T04:56:30.941Z,32.8
2017-05-15T04:57:30.915Z,32.8
2017-05-15T04:58:30.910Z,32.8
2017-05-15T04:59:31.309Z,32.9
2017-05-15T05:00:29.910Z,32.9
2017-05-15T05:01:30.020Z,32.9
2017-05-15T05:02:31.053Z,32.9
2017-05-15T05:03:31.080Z,32.9
2017-05-15T05:04:31.239Z,33
2017-05-15T05:05:30.374Z,33
2017-05-15T05:06:30.268Z,33
2017-05-15T05:07:31.262Z,33
2017-05-15T05:08:30.266Z,33
2017-05-15T05:09:30.414Z,33.1
2017-05-15T05:10:30.308Z,33.1
2017-05-15T05:11:31.842Z,33.1
2017-05-15T05:12:31.634Z,33.1
2017-05-15T05:13:31.737Z,33
2017-05-15T05:14:31.684Z,33.1
2017-05-15T05:15:31.783Z,33.1
2017-05-15T05:16:31.958Z,33.1
2017-05-15T05:17:31.243Z,33
2017-05-15T05:18:31.969Z,33.1
2017-05-15T05:19:31.969Z,33.1
2017-05-15T05:20:32.109Z,33.1
2017-05-15T05:21:31.090Z,33
2017-05-15T05:22:32.147Z,33
2017-05-15T05:23:31.483Z,33
2017-05-15T05:24:31.242Z,33
2017-05-15T05:25:32.394Z,32.9
2017-05-15T05:26:32.440Z,32.8
2017-05-15T05:27:32.991Z,32.7
2017-05-15T05:28:32.609Z,32.6
2017-05-15T05:29:31.798Z,32.5
2017-05-15T05:30:31.656Z,32.4
2017-05-15T05:31:32.788Z,32.4
2017-05-15T05:32:32.675Z,32.2
2017-05-15T05:33:31.730Z,32.2
2017-05-15T05:34:31.688Z,32.2
2017-05-15T05:35:33.167Z,32.2
2017-05-15T05:36:32.885Z,32.2
2017-05-15T05:37:33.039Z,32.1
2017-05-15T05:38:32.006Z,32
2017-05-15T05:39:31.975Z,31.9
2017-05-15T05:40:32.072Z,31.9
2017-05-15T05:41:32.464Z,31.8
2017-05-15T05:42:32.156Z,31.7
2017-05-15T05:43:33.973Z,31.6
2017-05-15T05:44:33.310Z,31.6
2017-05-15T05:45:33.961Z,31.5
2017-05-15T05:46:32.276Z,31.5
2017-05-15T05:47:32.638Z,31.5
2017-05-15T05:48:32.457Z,31.5
2017-05-15T05:49:33.477Z,31.5
2017-05-15T05:50:32.572Z,31.4
2017-05-15T05:51:34.260Z,31.4
2017-05-15T05:52:33.646Z,31.4
2017-05-15T05:53:34.045Z,31.4
2017-05-15T05:54:34.408Z,31.3
2017-05-15T05:55:33.903Z,31.3
2017-05-15T05:56:32.916Z,31.3
2017-05-15T05:57:34.049Z,31.3
2017-05-15T05:58:33.990Z,31.2
2017-05-15T05:59:33.292Z,31.2
2017-05-15T06:00:33.048Z,31.1
2017-05-15T06:01:34.828Z,31
2017-05-15T06:02:34.385Z,31
2017-05-15T06:03:34.562Z,30.9
2017-05-15T06:04:35.558Z,30.9
2017-05-15T06:05:33.549Z,30.9
2017-05-15T06:06:34.393Z,30.9
2017-05-15T06:07:34.272Z,30.9
2017-05-15T06:08:33.432Z,30.8
2017-05-15T06:09:34.033Z,30.8
2017-05-15T06:10:34.049Z,30.8
2017-05-15T06:11:34.937Z,30.7
2017-05-15T06:12:34.079Z,30.7
2017-05-15T06:13:34.693Z,30.7
2017-05-15T06:14:34.908Z,30.6
2017-05-15T06:15:33.676Z,30.6
2017-05-15T06:16:35.393Z,30.5
2017-05-15T06:17:34.183Z,30.5
2017-05-15T06:18:33.794Z,30.5
2017-05-15T06:19:36.257Z,30.5
2017-05-15T06:20:34.919Z,30.5
2017-05-15T06:21:35.834Z,30.4
2017-05-15T06:22:34.006Z,30.4
2017-05-15T06:23:35.449Z,30.4
2017-05-15T06:24:35.863Z,30.3
2017-05-15T06:25:34.789Z,30.4
2017-05-15T06:26:35.911Z,30.4
2017-05-15T06:27:34.122Z,30.4
2017-05-15T06:28:35.205Z,30.3
2017-05-15T06:29:35.870Z,30.3
2017-05-15T06:30:35.280Z,30.3
2017-05-15T06:31:35.437Z,30.2
2017-05-15T06:32:36.151Z,30.2
2017-05-15T06:33:36.960Z,30.1
2017-05-15T06:34:35.665Z,30.2
2017-05-15T06:35:35.508Z,30.2
2017-05-15T06:36:35.734Z,30.2
2017-05-15T06:37:34.680Z,30.2
2017-05-15T06:38:36.058Z,30.2
2017-05-15T06:39:35.413Z,30.2
2017-05-15T06:40:34.875Z,30.2
2017-05-15T06:41:36.247Z,30.1
2017-05-15T06:42:36.873Z,30.2
2017-05-15T06:43:37.952Z,30.1
2017-05-15T06:44:35.097Z,30.1
2017-05-15T06:45:36.261Z,30.1
2017-05-15T06:46:36.824Z,30.1
2017-05-15T06:47:36.452Z,30.1
2017-05-15T06:48:36.367Z,30.1
2017-05-15T06:49:38.180Z,30.1
2017-05-15T06:50:35.301Z,30.1
2017-05-15T06:51:35.866Z,30.1
2017-05-15T06:52:37.383Z,30
2017-05-15T06:53:37.459Z,30
2017-05-15T06:54:37.702Z,29.9
2017-05-15T06:55:38.527Z,29.8
2017-05-15T06:56:35.610Z,29.8
2017-05-15T06:57:37.850Z,29.7
2017-05-15T06:58:38.195Z,29.7
2017-05-15T06:59:37.209Z,29.7
2017-05-15T07:00:37.562Z,29.6
2017-05-15T07:01:35.883Z,29.6
2017-05-15T07:02:36.894Z,29.6
2017-05-15T07:03:38.140Z,29.6
2017-05-15T07:04:40.987Z,29.6
2017-05-15T07:05:37.500Z,29.6
2017-05-15T07:06:37.193Z,29.6
2017-05-15T07:07:39.503Z,29.6
2017-05-15T07:08:36.161Z,29.5
2017-05-15T07:09:39.758Z,29.4
2017-05-15T07:10:39.064Z,29.4
2017-05-15T07:11:40.869Z,29.4
2017-05-15T07:12:38.635Z,29.3
2017-05-15T07:13:37.630Z,29.4
2017-05-15T07:14:36.585Z,29.4
2017-05-15T07:15:38.302Z,29.4
2017-05-15T07:16:37.273Z,29.3
2017-05-15T07:17:39.393Z,29.3
2017-05-15T07:18:37.334Z,29.3
2017-05-15T07:19:39.835Z,29.2
2017-05-15T07:20:38.184Z,29.2
2017-05-15T07:21:39.586Z,29.2
2017-05-15T07:22:38.694Z,29.1
2017-05-15T07:23:43.755Z,29.1
2017-05-15T07:24:43.509Z,29
2017-05-15T07:25:39.364Z,28.9
2017-05-15T07:26:39.744Z,28.9
2017-05-15T07:27:39.674Z,28.8
2017-05-15T07:28:38.948Z,28.8
2017-05-15T07:29:39.393Z,28.8
2017-05-15T07:30:40.865Z,28.6
2017-05-15T07:31:37.869Z,28.5
2017-05-15T07:32:43.163Z,28.5
2017-05-15T07:33:37.555Z,28.5
2017-05-15T07:34:42.137Z,28.4
2017-05-15T07:35:38.590Z,28.3
2017-05-15T07:36:40.147Z,28.2
2017-05-15T07:37:39.575Z,28.2
2017-05-15T07:38:37.628Z,28.2
2017-05-15T07:39:39.896Z,28.1
2017-05-15T07:40:41.236Z,28.1
2017-05-15T07:41:38.649Z,28.2
2017-05-15T07:42:38.537Z,28.2
2017-05-15T07:43:40.918Z,28.2
2017-05-15T07:44:41.695Z,28.2
2017-05-15T07:45:39.091Z,28.2
2017-05-15T07:46:42.770Z,28.1
2017-05-15T07:47:41.319Z,28.1
2017-05-15T07:48:43.218Z,28.1
2017-05-15T07:49:41.115Z,28.1
2017-05-15T07:50:38.817Z,27.9
2017-05-15T07:51:39.372Z,27.9
2017-05-15T07:52:39.137Z,27.8
2017-05-15T07:53:39.428Z,27.8
2017-05-15T07:54:40.092Z,27.7
2017-05-15T07:55:39.141Z,27.7
2017-05-15T07:56:42.868Z,27.8
2017-05-15T07:57:40.477Z,27.7
2017-05-15T07:58:41.565Z,27.7
2017-05-15T07:59:40.764Z,27.7
2017-05-15T08:00:42.017Z,27.7
2017-05-15T08:01:46.451Z,27.7
2017-05-15T08:02:42.982Z,27.7
2017-05-15T08:03:43.195Z,27.7
2017-05-15T08:04:42.690Z,27.7
2017-05-15T08:05:45.886Z,27.7
2017-05-15T08:06:42.653Z,27.7
2017-05-15T08:07:39.730Z,27.6
2017-05-15T08:08:40.394Z,27.6
2017-05-15T08:09:43.567Z,27.5
2017-05-15T08:10:41.725Z,27.5
2017-05-15T08:11:42.571Z,27.6
2017-05-15T08:12:42.769Z,27.5
2017-05-15T08:13:40.639Z,27.4
2017-05-15T08:14:41.350Z,27.4
2017-05-15T08:15:44.924Z,27.4
2017-05-15T08:16:43.899Z,27.3
2017-05-15T08:17:42.433Z,27.3
2017-05-15T08:18:46.641Z,27.3
2017-05-15T08:19:49.868Z,27.3
2017-05-15T08:20:46.757Z,27.3
2017-05-15T08:21:48.269Z,27.3
2017-05-15T08:22:47.126Z,27.3
2017-05-15T08:24:54.571Z,27.3
2017-05-15T08:25:49.753Z,27.4
2017-05-15T08:26:45.283Z,27.4
2017-05-15T08:27:52.334Z,27.4
2017-05-15T08:28:44.446Z,27.3
2017-05-15T08:29:46.121Z,27.2
2017-05-15T08:30:44.611Z,27.2
2017-05-15T08:31:44.847Z,27
2017-05-15T08:32:46.603Z,27
2017-05-15T08:33:44.527Z,27
2017-05-15T08:34:44.684Z,27
2017-05-15T08:35:50.683Z,27
2017-05-15T08:36:44.836Z,27
2017-05-15T08:37:45.616Z,27
2017-05-15T08:38:47.304Z,27
2017-05-15T08:39:49.031Z,27
2017-05-15T08:40:46.600Z,27.1
2017-05-15T08:41:51.255Z,27.1
2017-05-15T08:42:47.432Z,27.2
2017-05-15T08:43:47.093Z,27.2
2017-05-15T08:44:45.233Z,27.2
2017-05-15T08:46:48.416Z,27.3
2017-05-15T08:47:46.312Z,27.4
2017-05-15T08:48:44.765Z,27.4
2017-05-15T08:49:46.162Z,27.5
2017-05-15T08:50:48.454Z,27.5
2017-05-15T08:51:46.339Z,27.4
2017-05-15T08:52:46.574Z,27.4
2017-05-15T08:53:46.172Z,27.4
2017-05-15T08:54:46.279Z,27.4
2017-05-15T08:55:47.109Z,27.3
2017-05-15T08:56:46.581Z,27.4
2017-05-15T08:57:46.886Z,27.4
2017-05-15T08:58:46.738Z,27.4
2017-05-15T08:59:45.936Z,27.4
2017-05-15T09:00:45.656Z,27.4
2017-05-15T09:01:46.119Z,27.5
2017-05-15T09:02:49.520Z,27.4
2017-05-15T09:03:47.029Z,27.4
2017-05-15T09:04:48.637Z,27.4
2017-05-15T09:05:45.493Z,27.4
2017-05-15T09:06:45.513Z,27.3
2017-05-15T09:07:47.181Z,27.4
2017-05-15T09:08:45.494Z,27.4
2017-05-15T09:09:44.819Z,27.4
2017-05-15T09:10:46.790Z,27.4
2017-05-15T09:11:46.684Z,27.4
2017-05-15T09:12:46.701Z,27.4
2017-05-15T09:13:46.067Z,27.4
2017-05-15T09:14:47.227Z,27.4
2017-05-15T09:15:46.578Z,27.4
2017-05-15T09:16:45.496Z,27.3
2017-05-15T09:17:45.376Z,27.3
2017-05-15T09:18:46.447Z,27.3
2017-05-15T09:19:47.006Z,27.4
2017-05-15T09:20:47.077Z,27.3
2017-05-15T09:21:46.697Z,27.3
2017-05-15T09:22:51.167Z,27.3
2017-05-15T09:23:47.941Z,27.4
2017-05-15T09:24:47.124Z,27.4
2017-05-15T09:25:51.511Z,27.3
2017-05-15T09:26:46.112Z,27.3
2017-05-15T09:27:46.955Z,27.3
2017-05-15T09:28:48.519Z,27.2
2017-05-15T09:29:46.901Z,27.2
2017-05-15T09:30:47.202Z,27.2
2017-05-15T09:31:45.846Z,27.2
2017-05-15T09:32:47.340Z,27.1
2017-05-15T09:33:46.105Z,27.2
2017-05-15T09:34:45.362Z,27.2
2017-05-15T09:35:47.399Z,27.2
2017-05-15T09:36:47.627Z,27.1
2017-05-15T09:37:47.347Z,27
2017-05-15T09:38:47.344Z,26.9
2017-05-15T09:39:46.770Z,26.8
2017-05-15T09:40:47.944Z,26.7
2017-05-15T09:41:49.035Z,26.7
2017-05-15T09:42:45.780Z,26.5
2017-05-15T09:43:47.897Z,26.4
2017-05-15T09:44:46.717Z,26.4
2017-05-15T09:45:48.377Z,26.4
2017-05-15T09:46:48.839Z,26.4
2017-05-15T09:47:47.333Z,26.4
2017-05-15T09:48:50.123Z,26.4
2017-05-15T09:49:47.695Z,26.4
2017-05-15T09:50:49.091Z,26.4
2017-05-15T09:51:47.322Z,26.5
2017-05-15T09:52:47.173Z,26.5
2017-05-15T09:53:49.617Z,26.4
2017-05-15T09:54:48.300Z,26.4
2017-05-15T09:55:48.633Z,26.4
2017-05-15T09:56:48.597Z,26.3
2017-05-15T09:57:47.943Z,26.3
2017-05-15T09:58:47.711Z,26.2
2017-05-15T09:59:47.362Z,26.2
2017-05-15T10:00:47.668Z,26.2
2017-05-15T10:01:46.873Z,26.2
2017-05-15T10:02:50.512Z,26.2
2017-05-15T10:03:48.703Z,26.3
2017-05-15T10:04:48.036Z,26.3
2017-05-15T10:05:48.620Z,26.2
2017-05-15T10:06:48.493Z,26.2
2017-05-15T10:07:49.445Z,26.2
2017-05-15T10:08:47.939Z,26.1
2017-05-15T10:09:50.809Z,26.1
2017-05-15T10:10:51.941Z,26.1
2017-05-15T10:11:49.841Z,26.2
2017-05-15T10:12:49.848Z,26.3
2017-05-15T10:13:49.081Z,26.2
2017-05-15T10:14:49.499Z,26.1
2017-05-15T10:15:48.693Z,26.1
2017-05-15T10:16:49.009Z,26
2017-05-15T10:17:50.018Z,26
2017-05-15T10:18:50.936Z,26.1
2017-05-15T10:19:51.956Z,26.1
2017-05-15T10:20:50.325Z,26.1
2017-05-15T10:21:53.423Z,26
2017-05-15T10:22:50.146Z,26.1
2017-05-15T10:23:51.161Z,26
2017-05-15T10:24:50.413Z,26
2017-05-15T10:25:49.353Z,26
2017-05-15T10:26:49.102Z,26.1
2017-05-15T10:27:53.508Z,26.1
2017-05-15T10:28:54.431Z,26.1
2017-05-15T10:29:50.224Z,26.1
2017-05-15T10:30:51.333Z,26
2017-05-15T10:31:51.640Z,26
2017-05-15T10:32:53.213Z,26
2017-05-15T10:33:50.288Z,25.9
2017-05-15T10:34:51.584Z,26
2017-05-15T10:35:54.785Z,26
2017-05-15T10:36:54.420Z,26
2017-05-15T10:37:52.196Z,26
2017-05-15T10:38:51.806Z,26
2017-05-15T10:39:50.857Z,26
2017-05-15T10:40:53.759Z,26
2017-05-15T10:41:54.557Z,26
2017-05-15T10:42:50.974Z,26
2017-05-15T10:43:50.106Z,26
2017-05-15T10:44:54.639Z,25.9
2017-05-15T10:45:50.675Z,25.9
2017-05-15T10:46:52.237Z,25.8
2017-05-15T10:47:56.256Z,25.8
2017-05-15T10:48:52.876Z,25.9
2017-05-15T10:49:52.275Z,25.9
2017-05-15T10:50:54.493Z,25.9
2017-05-15T10:51:53.355Z,25.9
2017-05-15T10:52:55.512Z,25.9
2017-05-15T10:53:52.545Z,26
2017-05-15T10:54:53.089Z,25.9
2017-05-15T10:55:54.342Z,25.9
2017-05-15T10:56:57.381Z,25.9
2017-05-15T10:57:53.266Z,25.8
2017-05-15T10:58:56.345Z,25.8
2017-05-15T10:59:55.304Z,25.7
2017-05-15T11:00:53.757Z,25.7
2017-05-15T11:01:53.640Z,25.6
2017-05-15T11:02:57.510Z,25.6
2017-05-15T11:03:55.623Z,25.6
2017-05-15T11:05:52.970Z,25.6
2017-05-15T11:06:54.222Z,25.7
2017-05-15T11:07:54.576Z,25.7
2017-05-15T11:08:54.586Z,25.7
2017-05-15T11:09:57.546Z,25.8
2017-05-15T11:10:57.402Z,25.9
2017-05-15T11:11:54.376Z,25.9
2017-05-15T11:12:54.431Z,25.9
2017-05-15T11:13:52.523Z,25.9
2017-05-15T11:14:52.847Z,25.8
2017-05-15T11:15:52.457Z,25.9
2017-05-15T11:16:54.941Z,25.9
2017-05-15T11:17:55.105Z,25.8
2017-05-15T11:18:52.506Z,25.8
2017-05-15T11:19:57.056Z,25.7
2017-05-15T11:20:51.512Z,25.8
2017-05-15T11:21:51.527Z,25.8
2017-05-15T11:22:53.327Z,25.8
2017-05-15T11:23:52.393Z,25.7
2017-05-15T11:24:51.639Z,25.7
2017-05-15T11:25:52.219Z,25.7
2017-05-15T11:26:51.229Z,25.6
2017-05-15T11:27:53.396Z,25.7
2017-05-15T11:28:52.398Z,25.6
2017-05-15T11:29:51.699Z,25.5
2017-05-15T11:30:52.530Z,25.5
2017-05-15T11:31:51.134Z,25.4
2017-05-15T11:32:52.302Z,25.3
2017-05-15T11:33:51.527Z,25.1
2017-05-15T11:34:53.851Z,25.1
2017-05-15T11:35:52.397Z,25.1
2017-05-15T11:36:52.402Z,25.1
2017-05-15T11:37:53.637Z,25
2017-05-15T11:38:52.625Z,25
2017-05-15T11:39:52.206Z,25
2017-05-15T11:40:52.060Z,25
2017-05-15T11:41:52.437Z,25
2017-05-15T11:42:51.664Z,25
2017-05-15T11:43:51.789Z,25
2017-05-15T11:44:51.818Z,25.1
2017-05-15T11:45:53.001Z,25.1
2017-05-15T11:46:54.398Z,25
2017-05-15T11:47:53.048Z,25
2017-05-15T11:48:53.122Z,24.9
2017-05-15T11:49:53.184Z,24.9
2017-05-15T11:50:52.652Z,24.7
2017-05-15T11:51:52.885Z,24.6
2017-05-15T11:52:54.349Z,24.5
2017-05-15T11:53:52.306Z,24.5
2017-05-15T11:54:54.573Z,24.4
2017-05-15T11:55:54.929Z,24.5
2017-05-15T11:56:53.378Z,24.5
2017-05-15T11:57:55.065Z,24.5
2017-05-15T11:58:55.337Z,24.6
2017-05-15T11:59:52.835Z,24.7
2017-05-15T12:00:53.537Z,24.8
2017-05-15T12:01:53.613Z,24.9
2017-05-15T12:02:54.060Z,25.1
2017-05-15T12:03:53.955Z,25.2
2017-05-15T12:04:57.479Z,25.4
2017-05-15T12:05:57.204Z,25.5
2017-05-15T12:06:55.323Z,25.5
2017-05-15T12:07:55.431Z,25.6
2017-05-15T12:08:56.894Z,25.7
2017-05-15T12:09:56.531Z,25.8
2017-05-15T12:10:53.306Z,25.8
2017-05-15T12:11:56.106Z,25.8
2017-05-15T12:12:56.465Z,25.6
2017-05-15T12:13:57.220Z,25.4
2017-05-15T12:14:55.091Z,25.1
2017-05-15T12:15:56.773Z,24.9
2017-05-15T12:16:59.530Z,24.7
2017-05-15T12:17:54.709Z,24.6
2017-05-15T12:18:56.235Z,24.5
2017-05-15T12:19:54.856Z,24.5
2017-05-15T12:20:54.810Z,24.4
2017-05-15T12:21:57.198Z,24.3
2017-05-15T12:22:54.716Z,24.2
2017-05-15T12:23:53.830Z,24.1
2017-05-15T12:24:58.879Z,24.1
2017-05-15T12:25:57.963Z,24.2
2017-05-15T12:26:54.551Z,24.3
2017-05-15T12:27:56.067Z,24.5
2017-05-15T12:28:59.173Z,24.5
2017-05-15T12:29:57.307Z,24.5
2017-05-15T12:30:58.746Z,24.6
2017-05-15T12:32:01.577Z,24.7
2017-05-15T12:32:56.958Z,24.8
2017-05-15T12:33:59.067Z,24.8
2017-05-15T12:34:58.737Z,24.7
2017-05-15T12:35:58.810Z,24.5
2017-05-15T12:36:57.523Z,24.3
2017-05-15T12:38:01.850Z,24
2017-05-15T12:38:59.252Z,23.9
2017-05-15T12:39:56.771Z,23.8
2017-05-15T12:41:01.275Z,23.7
2017-05-15T12:41:56.530Z,23.7
2017-05-15T12:42:58.048Z,23.7
2017-05-15T12:44:02.931Z,23.8
2017-05-15T12:45:00.837Z,23.8
2017-05-15T12:45:58.078Z,23.9
2017-05-15T12:46:59.087Z,23.8
2017-05-15T12:47:55.800Z,23.8
2017-05-15T12:48:58.010Z,23.8
2017-05-15T12:49:57.212Z,23.9
2017-05-15T12:50:59.261Z,24
2017-05-15T12:52:00.497Z,24
2017-05-15T12:52:56.343Z,24
2017-05-15T12:53:57.119Z,24
2017-05-15T12:55:00.743Z,23.9
2017-05-15T12:56:00.123Z,23.9
2017-05-15T12:56:59.499Z,23.9
2017-05-15T12:58:01.482Z,23.9
2017-05-15T12:58:57.632Z,23.9
2017-05-15T12:59:58.646Z,23.8
2017-05-15T13:00:58.036Z,23.7
2017-05-15T13:01:57.509Z,23.7
2017-05-15T13:02:57.589Z,23.7
2017-05-15T13:03:59.401Z,23.7
2017-05-15T13:05:02.757Z,23.7
2017-05-15T13:05:58.223Z,23.7
2017-05-15T13:07:01.815Z,23.7
2017-05-15T13:07:57.823Z,23.7
2017-05-15T13:09:00.775Z,23.6
2017-05-15T13:10:00.024Z,23.7
2017-05-15T13:10:59.664Z,23.7
2017-05-15T13:12:00.492Z,23.8
2017-05-15T13:12:58.053Z,23.9
2017-05-15T13:13:59.902Z,24
2017-05-15T13:14:55.903Z,23.9
2017-05-15T13:15:58.058Z,23.8
2017-05-15T13:16:56.980Z,23.7
2017-05-15T13:17:54.342Z,23.7
2017-05-15T13:18:59.703Z,23.6
2017-05-15T13:19:59.067Z,23.7
2017-05-15T13:20:56.728Z,23.6
2017-05-15T13:22:00.187Z,23.6
2017-05-15T13:22:58.650Z,23.6
2017-05-15T13:23:57.503Z,23.5
2017-05-15T13:24:57.162Z,23.5
2017-05-15T13:25:55.310Z,23.5
2017-05-15T13:26:55.547Z,23.5
2017-05-15T13:27:56.136Z,23.5
2017-05-15T13:28:58.091Z,23.5
2017-05-15T13:30:03.301Z,23.4
2017-05-15T13:31:00.419Z,23.4
2017-05-15T13:32:06.792Z,23.3